createdAt,value
2022-08-29T11:25:21.852Z,82.41
2022-08-29T11:26:21.835Z,82.84
2022-08-29T11:27:21.812Z,81.18
2022-08-29T11:28:21.816Z,80.25
2022-08-29T11:29:21.781Z,78.79
2022-08-29T11:30:21.772Z,78.05
2022-08-29T11:31:21.801Z,76.97
2022-08-29T11:32:21.750Z,75.97
2022-08-29T11:33:21.754Z,74.22
2022-08-29T11:34:21.724Z,72.82
2022-08-29T11:35:21.708Z,72.88
2022-08-29T11:36:21.694Z,73.78
2022-08-29T11:37:21.682Z,74.85
2022-08-29T11:38:21.681Z,74.62
2022-08-29T11:39:21.678Z,75.20
2022-08-29T11:40:47.327Z,75.68
2022-08-29T11:41:29.421Z,75.98
2022-08-29T11:43:21.619Z,76.31
2022-08-29T11:44:21.607Z,75.85
2022-08-29T11:45:21.584Z,75.67
2022-08-29T11:46:21.592Z,75.72
2022-08-29T11:47:21.558Z,75.30
2022-08-29T11:48:21.570Z,75.81
2022-08-29T11:49:21.543Z,76.72
2022-08-29T11:50:21.523Z,75.40
2022-08-29T11:51:21.509Z,76.69
2022-08-29T11:52:22.522Z,76.01
2022-08-29T11:53:21.501Z,73.52
2022-08-29T11:54:25.006Z,73.80
2022-08-29T11:55:21.471Z,74.84
2022-08-29T11:56:29.031Z,75.32
2022-08-29T11:57:21.444Z,75.90
2022-08-29T11:58:21.445Z,77.14
2022-08-29T11:59:21.413Z,75.55
2022-08-29T12:00:21.440Z,75.26
2022-08-29T12:01:21.396Z,74.58
2022-08-29T12:02:21.415Z,74.97
2022-08-29T12:03:28.548Z,74.52
2022-08-29T12:04:21.375Z,74.75
2022-08-29T12:05:21.339Z,71.74
2022-08-29T12:06:21.329Z,72.09
2022-08-29T12:07:21.326Z,73.36
2022-08-29T12:08:35.966Z,73.58
2022-08-29T12:09:21.350Z,73.08
2022-08-29T12:10:21.288Z,72.92
2022-08-29T12:11:21.280Z,72.04
2022-08-29T12:12:21.259Z,70.84
2022-08-29T12:13:21.260Z,71.42
2022-08-29T12:14:21.252Z,69.96
2022-08-29T12:15:21.232Z,70.55
2022-08-29T12:16:21.250Z,69.45
2022-08-29T12:17:21.202Z,68.12
2022-08-29T12:18:21.211Z,68.26
2022-08-29T12:19:21.185Z,69.07
2022-08-29T12:20:21.167Z,69.07
2022-08-29T12:21:21.155Z,67.47
2022-08-29T12:22:22.031Z,67.73
2022-08-29T12:23:21.146Z,67.50
2022-08-29T12:24:21.134Z,66.93
2022-08-29T12:25:21.108Z,66.96
2022-08-29T12:26:22.801Z,66.53
2022-08-29T12:27:21.089Z,66.02
2022-08-29T12:28:21.089Z,65.30
2022-08-29T12:29:21.068Z,67.73
2022-08-29T12:30:21.068Z,67.02
2022-08-29T12:31:21.109Z,66.99
2022-08-29T12:32:23.826Z,66.24
2022-08-29T12:33:21.036Z,67.68
2022-08-29T12:34:23.449Z,65.10
2022-08-29T12:35:21.003Z,64.48
2022-08-29T12:36:20.994Z,63.70
2022-08-29T12:37:20.993Z,64.58
2022-08-29T12:38:20.984Z,64.51
2022-08-29T12:39:20.962Z,64.65
2022-08-29T12:40:20.999Z,64.97
2022-08-29T12:41:20.941Z,65.17
2022-08-29T12:42:20.940Z,65.85
2022-08-29T12:43:20.934Z,66.37
2022-08-29T12:44:20.922Z,65.33
2022-08-29T12:45:20.901Z,66.41
2022-08-29T12:46:20.925Z,66.79
2022-08-29T12:47:20.882Z,67.25
2022-08-29T12:48:20.895Z,66.79
2022-08-29T12:49:20.863Z,68.29
2022-08-29T12:50:20.854Z,69.58
2022-08-29T12:51:20.853Z,70.10
2022-08-29T12:52:20.835Z,70.56
2022-08-29T12:53:20.845Z,68.84
2022-08-29T12:54:20.826Z,67.96
2022-08-29T12:55:20.815Z,67.63
2022-08-29T12:56:20.794Z,68.38
2022-08-29T12:57:20.785Z,68.38
2022-08-29T12:58:20.800Z,68.77
2022-08-29T12:59:20.766Z,68.32
2022-08-29T13:00:20.764Z,67.35
2022-08-29T13:01:20.785Z,67.22
2022-08-29T13:02:20.776Z,65.46
2022-08-29T13:03:20.805Z,65.36
2022-08-29T13:04:20.721Z,64.58
2022-08-29T13:05:22.579Z,65.49
2022-08-29T13:06:20.704Z,65.63
2022-08-29T13:08:20.831Z,65.69
2022-08-29T13:09:20.682Z,65.69
2022-08-29T13:10:20.672Z,65.75
2022-08-29T13:11:20.650Z,66.17
2022-08-29T13:12:20.641Z,67.32
2022-08-29T13:13:20.646Z,66.31
2022-08-29T13:14:20.633Z,64.81
2022-08-29T13:15:20.626Z,66.24
2022-08-29T13:16:20.662Z,66.41
2022-08-29T13:17:20.598Z,67.50
2022-08-29T13:18:20.598Z,68.67
2022-08-29T13:19:20.578Z,68.54
2022-08-29T13:20:20.579Z,69.32
2022-08-29T13:21:20.560Z,70.10
2022-08-29T13:22:20.550Z,70.17
2022-08-29T13:23:20.547Z,69.35
2022-08-29T13:24:20.565Z,69.62
2022-08-29T13:25:20.528Z,67.90
2022-08-29T13:26:20.513Z,67.86
2022-08-29T13:27:20.512Z,68.51
2022-08-29T13:28:20.502Z,69.13
2022-08-29T13:29:20.537Z,70.00
2022-08-29T13:30:20.485Z,69.55
2022-08-29T13:31:20.553Z,69.81
2022-08-29T13:32:20.467Z,70.47
2022-08-29T13:33:20.448Z,69.17
2022-08-29T13:34:20.450Z,67.93
2022-08-29T13:35:20.447Z,67.02
2022-08-29T13:36:20.430Z,65.92
2022-08-29T13:37:20.417Z,66.17
2022-08-29T13:38:20.404Z,66.17
2022-08-29T13:39:20.404Z,65.04
2022-08-29T13:40:20.492Z,65.00
2022-08-29T13:41:20.384Z,64.61
2022-08-29T13:42:20.367Z,65.26
2022-08-29T13:43:20.365Z,64.29
2022-08-29T13:44:20.371Z,65.10
2022-08-29T13:45:20.339Z,66.24
2022-08-29T13:46:20.388Z,66.47
2022-08-29T13:47:20.327Z,67.32
2022-08-29T13:48:20.455Z,67.54
2022-08-29T13:49:20.320Z,67.80
2022-08-29T13:50:20.299Z,68.61
2022-08-29T13:51:20.303Z,67.96
2022-08-29T13:52:20.291Z,67.22
2022-08-29T13:53:20.284Z,67.64
2022-08-29T13:54:20.287Z,67.80
2022-08-29T13:55:20.260Z,67.38
2022-08-29T13:56:20.438Z,68.09
2022-08-29T13:57:20.254Z,66.99
2022-08-29T13:58:20.245Z,65.66
2022-08-29T13:59:20.252Z,65.72
2022-08-29T14:00:22.798Z,65.07
2022-08-29T14:02:20.420Z,65.82
2022-08-29T14:03:20.311Z,67.08
2022-08-29T14:04:37.395Z,66.31
2022-08-29T14:05:20.179Z,66.96
2022-08-29T14:06:20.172Z,65.82
2022-08-29T14:07:20.166Z,65.88
2022-08-29T14:08:20.156Z,65.72
2022-08-29T14:09:20.166Z,64.29
2022-08-29T14:10:20.152Z,63.57
2022-08-29T14:11:20.145Z,64.72
2022-08-29T14:12:20.126Z,65.78
2022-08-29T14:13:20.130Z,66.89
2022-08-29T14:14:20.113Z,65.46
2022-08-29T14:15:20.119Z,65.56
2022-08-29T14:16:20.157Z,65.88
2022-08-29T14:17:20.092Z,65.78
2022-08-29T14:18:20.084Z,66.11
2022-08-29T14:19:20.087Z,65.69
2022-08-29T14:20:20.093Z,66.17
2022-08-29T14:21:20.068Z,66.76
2022-08-29T14:22:20.052Z,65.69
2022-08-29T14:23:23.169Z,67.67
2022-08-29T14:24:20.047Z,66.79
2022-08-29T14:25:20.055Z,66.02
2022-08-29T14:26:20.024Z,65.85
2022-08-29T14:27:20.017Z,67.28
2022-08-29T14:28:20.017Z,67.41
2022-08-29T14:29:20.005Z,66.14
2022-08-29T14:30:20.014Z,66.53
2022-08-29T14:31:20.063Z,66.34
2022-08-29T14:32:19.977Z,66.66
2022-08-29T14:33:20.107Z,68.15
2022-08-29T14:34:19.961Z,67.31
2022-08-29T14:35:26.494Z,66.76
2022-08-29T14:36:19.946Z,67.38
2022-08-29T14:37:19.954Z,66.34
2022-08-29T14:38:19.941Z,65.14
2022-08-29T14:39:19.923Z,64.26
2022-08-29T14:40:21.831Z,64.36
2022-08-29T14:41:19.907Z,65.50
2022-08-29T14:42:19.909Z,65.43
2022-08-29T14:43:19.903Z,66.24
2022-08-29T14:44:20.469Z,66.24
2022-08-29T14:45:19.888Z,67.64
2022-08-29T14:46:19.920Z,66.24
2022-08-29T14:47:19.872Z,66.44
2022-08-29T14:48:19.851Z,66.69
2022-08-29T14:49:19.844Z,64.42
2022-08-29T14:50:19.855Z,63.87
2022-08-29T14:51:19.829Z,64.00
2022-08-29T14:52:19.823Z,62.82
2022-08-29T14:53:19.813Z,63.09
2022-08-29T14:54:19.805Z,64.71
2022-08-29T14:55:19.812Z,65.14
2022-08-29T14:56:37.240Z,63.64
2022-08-29T14:57:19.783Z,63.21
2022-08-29T14:58:19.790Z,64.32
2022-08-29T14:59:19.773Z,64.69
2022-08-29T15:00:19.773Z,66.02
2022-08-29T15:01:19.823Z,66.31
2022-08-29T15:02:19.792Z,66.96
2022-08-29T15:03:19.751Z,67.12
2022-08-29T15:04:21.755Z,66.47
2022-08-29T15:05:19.737Z,64.03
2022-08-29T15:06:19.727Z,64.45
2022-08-29T15:07:19.725Z,65.20
2022-08-29T15:08:20.089Z,67.18
2022-08-29T15:09:19.699Z,68.35
2022-08-29T15:10:19.707Z,69.74
2022-08-29T15:11:19.694Z,69.48
2022-08-29T15:12:19.685Z,69.51
2022-08-29T15:13:19.670Z,70.45
2022-08-29T15:14:19.679Z,70.06
2022-08-29T15:15:19.670Z,69.51
2022-08-29T15:16:19.695Z,69.16
2022-08-29T15:17:19.649Z,68.64
2022-08-29T15:18:48.028Z,66.76
2022-08-29T15:20:37.161Z,66.31
2022-08-29T15:21:19.610Z,65.20
2022-08-29T15:22:19.601Z,64.42
2022-08-29T15:23:19.626Z,66.17
2022-08-29T15:24:19.584Z,66.37
2022-08-29T15:25:19.600Z,66.73
2022-08-29T15:26:19.580Z,67.35
2022-08-29T15:27:21.627Z,67.90
2022-08-29T15:28:19.558Z,68.70
2022-08-29T15:29:19.547Z,69.35
2022-08-29T15:30:19.564Z,69.74
2022-08-29T15:31:19.653Z,69.45
2022-08-29T15:32:19.529Z,69.87
2022-08-29T15:33:19.525Z,69.58
2022-08-29T15:34:19.514Z,69.96
2022-08-29T15:35:19.522Z,69.22
2022-08-29T15:36:19.499Z,69.32
2022-08-29T15:37:19.491Z,68.22
2022-08-29T15:38:19.482Z,68.22
2022-08-29T15:39:19.478Z,68.25
2022-08-29T15:40:19.560Z,67.76
2022-08-29T15:41:19.450Z,66.96
2022-08-29T15:54:00.238Z,71.19
2022-08-29T15:55:00.212Z,70.73
2022-08-29T15:56:00.213Z,70.09
2022-08-29T15:57:00.182Z,69.80
2022-08-29T15:58:00.182Z,70.32
2022-08-29T15:59:00.166Z,69.90
2022-08-29T16:00:00.187Z,70.00
2022-08-29T16:01:00.182Z,69.06
2022-08-29T16:02:00.237Z,68.80
2022-08-29T16:03:00.238Z,69.06
2022-08-29T16:04:00.116Z,69.06
2022-08-29T16:05:00.155Z,68.90
2022-08-29T16:06:00.119Z,69.48
2022-08-29T16:07:00.093Z,69.35
2022-08-29T16:08:00.092Z,70.45
2022-08-29T16:09:00.080Z,69.96
2022-08-29T16:10:00.075Z,69.58
2022-08-29T16:30:05.414Z,72.77
2022-08-29T16:31:05.410Z,72.61
